createdAt,value
2023-03-05T00:03:17.207Z,1030.00
2023-03-05T00:04:17.125Z,1037.00
2023-03-05T00:05:17.085Z,1037.00
2023-03-05T00:06:17.042Z,1038.00
2023-03-05T00:07:16.997Z,1040.00
2023-03-05T00:08:16.955Z,1046.00
2023-03-05T00:09:16.915Z,1052.00
2023-03-05T00:10:16.869Z,1053.00
2023-03-05T00:11:16.825Z,1051.00
2023-03-05T00:12:16.797Z,1050.00
2023-03-05T00:13:16.746Z,1055.00
2023-03-05T00:14:16.713Z,1065.00
2023-03-05T00:15:16.665Z,1058.00
2023-03-05T00:16:16.673Z,1056.00
2023-03-05T00:17:16.569Z,1061.00
2023-03-05T00:18:16.540Z,1076.00
2023-03-05T00:19:16.482Z,1074.00
2023-03-05T00:20:16.427Z,1080.00
2023-03-05T00:21:16.368Z,1076.00
2023-03-05T00:22:16.325Z,1076.00
2023-03-05T00:23:16.274Z,1081.00
2023-03-05T00:24:16.227Z,1085.00
2023-03-05T00:25:16.197Z,1080.00
2023-03-05T00:26:16.141Z,1077.00
2023-03-05T00:27:16.090Z,1083.00
2023-03-05T00:28:16.061Z,1091.00
2023-03-05T00:29:15.994Z,1086.00
2023-03-05T00:30:15.974Z,1076.00
2023-03-05T00:31:15.957Z,1074.00
2023-03-05T00:32:15.904Z,1085.00
2023-03-05T00:33:15.819Z,1083.00
2023-03-05T00:34:15.785Z,1077.00
2023-03-05T00:35:15.734Z,1082.00
2023-03-05T00:36:15.679Z,1102.00
2023-03-05T00:37:15.640Z,1077.00
2023-03-05T00:38:15.615Z,1080.00
2023-03-05T00:39:15.561Z,1071.00
2023-03-05T00:40:15.549Z,1068.00
2023-03-05T00:41:15.468Z,1080.00
2023-03-05T00:42:15.416Z,1053.00
2023-03-05T00:43:15.355Z,1058.00
2023-03-05T04:24:05.947Z,648.00
2023-03-05T04:25:05.895Z,648.00
2023-03-05T04:26:05.846Z,649.00
2023-03-05T04:27:05.815Z,653.00
2023-03-05T04:28:05.775Z,658.00
2023-03-05T04:29:05.742Z,673.00
2023-03-05T04:30:05.716Z,676.00
2023-03-05T04:32:05.616Z,708.00
2023-03-05T04:33:05.593Z,705.00
2023-03-05T04:34:05.556Z,714.00
2023-03-05T04:35:05.479Z,714.00
2023-03-05T04:36:05.433Z,719.00
2023-03-05T04:37:05.390Z,723.00
2023-03-05T04:38:05.373Z,728.00
2023-03-05T07:05:59.517Z,656.00
2023-03-05T07:06:59.494Z,651.00
2023-03-05T07:07:59.451Z,660.00
2023-03-05T07:08:59.423Z,665.00
2023-03-05T07:09:59.386Z,665.00
2023-03-05T07:10:59.386Z,667.00
2023-03-05T07:11:59.326Z,665.00
2023-03-05T07:12:59.253Z,669.00
2023-03-05T07:13:59.245Z,678.00
2023-03-05T07:14:59.209Z,692.00
2023-03-05T07:15:59.221Z,720.00
2023-03-05T07:16:59.122Z,732.00
2023-03-05T07:17:59.106Z,744.00
2023-03-05T07:18:59.043Z,759.00
2023-03-05T07:19:59.007Z,757.00
2023-03-05T07:20:58.961Z,759.00
2023-03-05T07:21:58.925Z,751.00
2023-03-05T07:22:58.896Z,771.00
2023-03-05T07:23:58.865Z,771.00
2023-03-05T07:24:58.814Z,774.00
2023-03-05T07:25:58.766Z,773.00
2023-03-05T07:26:58.731Z,790.00
2023-03-05T07:27:58.699Z,795.00
2023-03-05T07:28:58.646Z,787.00
2023-03-05T07:29:58.610Z,800.00
2023-03-05T07:30:58.634Z,804.00
2023-03-05T07:31:58.559Z,800.00
2023-03-05T07:32:58.515Z,807.00
2023-03-05T07:33:58.460Z,815.00
2023-03-05T07:34:58.441Z,797.00
2023-03-05T07:35:58.451Z,821.00
2023-03-05T07:36:58.367Z,804.00
2023-03-05T07:37:58.314Z,811.00
2023-03-05T07:38:58.277Z,820.00
2023-03-05T07:39:58.253Z,813.00
2023-03-05T07:40:58.192Z,822.00
2023-03-05T07:41:58.176Z,819.00
2023-03-05T07:42:58.144Z,827.00
2023-03-05T07:43:58.079Z,833.00
2023-03-05T07:44:58.034Z,823.00
2023-03-05T07:45:58.063Z,834.00
2023-03-05T07:46:57.956Z,834.00
2023-03-05T07:47:57.918Z,845.00
2023-03-05T07:48:57.892Z,841.00
2023-03-05T07:49:57.828Z,840.00
2023-03-05T07:50:57.810Z,851.00
2023-03-05T07:51:57.773Z,844.00
2023-03-05T07:52:57.743Z,862.00
2023-03-05T07:53:57.700Z,863.00
2023-03-05T07:54:57.659Z,847.00
2023-03-05T07:55:57.620Z,847.00
2023-03-05T07:56:57.603Z,858.00
2023-03-05T07:57:57.552Z,859.00
2023-03-05T07:58:57.519Z,862.00
2023-03-05T07:59:57.478Z,867.00
2023-03-05T08:00:57.453Z,869.00
2023-03-05T08:01:57.412Z,862.00
2023-03-05T08:02:57.375Z,869.00
2023-03-05T08:03:57.387Z,879.00
2023-03-05T08:04:57.294Z,870.00
2023-03-05T08:05:57.254Z,886.00
2023-03-05T08:06:57.209Z,899.00
2023-03-05T08:07:57.193Z,886.00
2023-03-05T08:08:57.143Z,870.00
2023-03-05T08:09:57.097Z,874.00
2023-03-05T08:10:57.044Z,874.00
2023-03-05T08:11:57.014Z,868.00
2023-03-05T08:12:56.990Z,844.00
2023-03-05T08:13:56.932Z,837.00
2023-03-05T08:14:56.896Z,809.00
2023-03-05T08:15:56.907Z,780.00
2023-03-05T08:16:56.829Z,745.00
2023-03-05T08:17:56.803Z,750.00
2023-03-05T08:18:56.765Z,739.00
2023-03-05T08:19:56.759Z,728.00
2023-03-05T08:20:56.700Z,715.00
2023-03-05T08:21:56.670Z,714.00
2023-03-05T08:22:56.637Z,698.00
2023-03-05T08:23:56.605Z,693.00
2023-03-05T08:24:56.562Z,682.00
2023-03-05T08:25:56.528Z,660.00
2023-03-05T08:26:56.487Z,657.00
2023-03-05T08:27:56.488Z,658.00
2023-03-05T08:28:56.434Z,649.00
2023-03-05T08:29:56.395Z,645.00
2023-03-05T08:30:56.390Z,645.00
2023-03-05T08:31:56.322Z,644.00
2023-03-05T08:32:56.268Z,643.00
2023-03-05T08:33:56.216Z,644.00
2023-03-05T08:34:56.179Z,641.00
2023-03-05T08:35:56.217Z,642.00
2023-03-05T08:36:56.111Z,635.00
2023-03-05T08:37:56.073Z,632.00
2023-03-05T08:38:56.055Z,635.00
2023-03-05T08:39:56.000Z,636.00
2023-03-05T08:40:55.936Z,631.00
2023-03-05T08:41:55.907Z,633.00
2023-03-05T08:42:55.896Z,628.00
2023-03-05T08:43:55.835Z,620.00
2023-03-05T08:44:55.781Z,619.00
2023-03-05T08:45:55.767Z,620.00
2023-03-05T08:46:55.750Z,614.00
2023-03-05T08:47:55.682Z,604.00
2023-03-05T08:48:55.648Z,609.00
2023-03-05T08:49:55.632Z,614.00
2023-03-05T08:50:55.558Z,614.00
2023-03-05T08:51:55.526Z,616.00
2023-03-05T08:52:55.488Z,610.00
2023-03-05T08:53:55.452Z,620.00
2023-03-05T08:54:55.417Z,621.00
2023-03-05T08:55:55.367Z,620.00
2023-03-05T08:56:55.332Z,615.00
2023-03-05T11:07:49.188Z,549.00
2023-03-05T11:08:49.121Z,546.00
2023-03-05T11:09:49.058Z,548.00
2023-03-05T11:10:48.988Z,546.00
2023-03-05T11:11:48.923Z,546.00
2023-03-05T11:12:48.868Z,554.00
2023-03-05T11:13:48.814Z,558.00
2023-03-05T11:14:48.745Z,568.00
2023-03-05T11:15:48.727Z,557.00
2023-03-05T11:16:48.624Z,563.00
2023-03-05T11:17:48.564Z,567.00
2023-03-05T11:18:48.491Z,568.00
2023-03-05T11:19:48.459Z,568.00
2023-03-05T11:20:48.379Z,559.00
2023-03-05T11:21:48.316Z,545.00
2023-03-05T11:22:48.259Z,546.00
2023-03-05T11:23:48.205Z,552.00
2023-03-05T11:24:48.126Z,560.00
2023-03-05T11:25:48.083Z,561.00
2023-03-05T11:26:48.014Z,567.00
2023-03-05T11:27:50.185Z,562.00
2023-03-05T11:28:47.887Z,556.00
2023-03-05T11:29:47.814Z,561.00
2023-03-05T11:30:47.799Z,562.00
2023-03-05T11:31:47.685Z,567.00
2023-03-05T11:32:47.625Z,563.00
2023-03-05T11:33:47.554Z,570.00
2023-03-05T11:34:47.481Z,573.00
2023-03-05T11:35:47.502Z,563.00
2023-03-05T11:36:47.356Z,561.00
2023-03-05T11:37:47.288Z,562.00
2023-03-05T11:38:47.239Z,566.00
2023-03-05T11:39:47.185Z,557.00
2023-03-05T11:40:47.093Z,551.00
2023-03-05T11:41:47.055Z,553.00
2023-03-05T11:42:46.968Z,549.00
2023-03-05T11:43:46.916Z,546.00
2023-03-05T11:44:46.874Z,544.00
2023-03-05T11:45:46.767Z,535.00
2023-03-05T11:46:46.717Z,544.00
2023-03-05T11:47:46.650Z,546.00
2023-03-05T11:48:46.584Z,544.00
2023-03-05T11:49:46.525Z,541.00
2023-03-05T11:50:46.457Z,544.00
2023-03-05T11:51:46.400Z,540.00
2023-03-05T11:52:46.353Z,536.00
2023-03-05T11:53:46.279Z,538.00
2023-03-05T11:54:46.211Z,542.00
2023-03-05T11:55:46.135Z,540.00
2023-03-05T11:56:46.118Z,538.00
2023-03-05T11:57:46.057Z,537.00
2023-03-05T11:58:45.953Z,536.00
2023-03-05T11:59:45.889Z,534.00
2023-03-05T12:00:45.830Z,534.00
2023-03-05T12:01:45.757Z,530.00
2023-03-05T12:02:45.785Z,526.00
2023-03-05T12:03:45.668Z,524.00
2023-03-05T12:04:45.557Z,521.00
2023-03-05T12:05:45.505Z,519.00
2023-03-05T12:06:45.869Z,524.00
2023-03-05T12:07:45.376Z,510.00
2023-03-05T12:55:42.195Z,512.00
2023-03-05T12:56:42.153Z,512.00
2023-03-05T12:57:42.083Z,513.00
2023-03-05T12:58:42.018Z,515.00
2023-03-05T12:59:41.955Z,510.00
2023-03-05T13:00:41.946Z,506.00
2023-03-05T13:01:41.797Z,512.00
2023-03-05T13:02:41.726Z,513.00
2023-03-05T13:03:41.710Z,512.00
2023-03-05T13:04:41.602Z,504.00
2023-03-05T13:05:41.555Z,504.00
2023-03-05T13:06:41.471Z,510.00
2023-03-05T13:07:41.387Z,513.00
2023-03-05T13:08:41.311Z,518.00
2023-03-05T13:09:41.240Z,524.00
2023-03-05T13:10:41.177Z,522.00
2023-03-05T13:11:41.138Z,522.00
2023-03-05T13:12:41.043Z,520.00
2023-03-05T13:13:40.977Z,522.00
2023-03-05T13:14:40.907Z,523.00
2023-03-05T13:15:40.831Z,522.00
2023-03-05T13:16:40.790Z,521.00
2023-03-05T13:17:40.711Z,520.00
2023-03-05T13:18:40.628Z,516.00
2023-03-05T13:19:40.564Z,515.00
2023-03-05T13:20:40.494Z,517.00
2023-03-05T13:21:40.414Z,518.00
2023-03-05T13:22:40.376Z,518.00
2023-03-05T13:23:40.315Z,519.00
2023-03-05T13:24:40.296Z,519.00
2023-03-05T13:25:40.174Z,518.00
2023-03-05T13:26:40.105Z,519.00
2023-03-05T13:27:40.028Z,520.00
2023-03-05T13:28:39.993Z,521.00
2023-03-05T13:29:39.905Z,517.00
2023-03-05T13:30:39.840Z,516.00
2023-03-05T13:31:39.800Z,517.00
2023-03-05T13:32:39.773Z,519.00
2023-03-05T13:33:39.642Z,518.00
2023-03-05T13:34:47.598Z,517.00
2023-03-05T13:35:40.559Z,517.00
2023-03-05T13:36:39.437Z,518.00
2023-03-05T13:37:39.371Z,518.00
2023-03-05T13:38:39.318Z,526.00
2023-03-05T13:39:39.235Z,530.00
2023-03-05T13:40:39.171Z,524.00
2023-03-05T13:41:39.109Z,515.00
2023-03-05T13:42:39.047Z,512.00
2023-03-05T13:43:38.972Z,515.00
2023-03-05T13:44:38.955Z,516.00
2023-03-05T13:45:38.928Z,520.00
2023-03-05T13:46:38.804Z,515.00
2023-03-05T13:47:38.732Z,513.00
2023-03-05T13:48:38.677Z,519.00
2023-03-05T13:49:38.605Z,533.00
2023-03-05T13:50:38.545Z,518.00
2023-03-05T13:51:38.471Z,525.00
2023-03-05T13:52:38.408Z,522.00
2023-03-05T13:53:38.354Z,523.00
2023-03-05T13:54:38.294Z,523.00
2023-03-05T13:55:38.226Z,518.00
2023-03-05T13:56:38.172Z,529.00
2023-03-05T13:57:38.105Z,535.00
2023-03-05T13:58:38.038Z,523.00
2023-03-05T13:59:37.967Z,521.00
2023-03-05T14:00:37.915Z,516.00
2023-03-05T14:01:37.836Z,514.00
2023-03-05T14:02:37.768Z,514.00
2023-03-05T14:03:37.704Z,519.00
2023-03-05T14:04:37.770Z,531.00
2023-03-05T14:05:37.572Z,532.00
2023-03-05T14:06:37.505Z,537.00
2023-03-05T14:07:37.476Z,544.00
2023-03-05T14:08:37.388Z,547.00
2023-03-05T14:09:37.318Z,546.00
2023-03-05T14:10:37.259Z,541.00
2023-03-05T14:11:37.183Z,553.00
2023-03-05T14:12:37.174Z,559.00
2023-03-05T14:13:37.062Z,539.00
2023-03-05T14:14:37.020Z,552.00
2023-03-05T14:15:36.925Z,560.00
2023-03-05T14:16:36.915Z,583.00
2023-03-05T14:17:36.823Z,579.00
2023-03-05T14:18:36.764Z,553.00
2023-03-05T14:19:36.689Z,536.00
2023-03-05T14:20:36.620Z,530.00
2023-03-05T14:21:36.536Z,545.00
2023-03-05T14:22:36.477Z,560.00
2023-03-05T14:23:36.402Z,567.00
2023-03-05T14:24:36.346Z,573.00
2023-03-05T14:25:36.268Z,572.00
2023-03-05T14:26:36.218Z,579.00
2023-03-05T14:27:36.135Z,584.00
2023-03-05T14:28:36.083Z,580.00
2023-03-05T14:29:36.018Z,571.00
2023-03-05T14:30:36.004Z,567.00
2023-03-05T14:31:35.880Z,543.00
2023-03-05T14:32:35.962Z,509.00
2023-03-05T14:33:35.764Z,502.00
2023-03-05T14:34:35.693Z,500.00
2023-03-05T14:35:35.644Z,512.00
2023-03-05T14:36:35.557Z,519.00
2023-03-05T14:37:35.519Z,519.00
2023-03-05T14:38:35.440Z,526.00
2023-03-05T14:39:35.374Z,526.00
2023-03-05T14:40:35.349Z,530.00
2023-03-05T14:41:35.249Z,537.00
2023-03-05T14:42:37.586Z,550.00
2023-03-05T14:43:35.123Z,526.00
2023-03-05T14:44:35.069Z,528.00
2023-03-05T14:45:34.987Z,497.00
2023-03-05T14:46:34.941Z,499.00
2023-03-05T14:47:34.868Z,533.00
2023-03-05T14:48:34.816Z,507.00
2023-03-05T14:49:34.772Z,503.00
2023-03-05T14:50:34.685Z,514.00
2023-03-05T14:51:35.457Z,509.00
2023-03-05T14:52:34.581Z,503.00
2023-03-05T14:53:34.509Z,528.00
2023-03-05T14:54:34.447Z,501.00
2023-03-05T14:55:34.386Z,500.00
2023-03-05T14:56:34.314Z,500.00
2023-03-05T14:57:34.242Z,503.00
2023-03-05T14:58:34.208Z,503.00
2023-03-05T14:59:34.454Z,502.00
2023-03-05T15:00:34.076Z,501.00
2023-03-05T15:01:34.030Z,505.00
2023-03-05T15:02:33.979Z,512.00
2023-03-05T15:03:33.861Z,510.00
2023-03-05T15:04:33.797Z,511.00
2023-03-05T15:05:33.709Z,521.00
2023-03-05T15:06:33.657Z,527.00
2023-03-05T15:07:33.577Z,520.00
2023-03-05T15:08:33.589Z,506.00
2023-03-05T15:09:33.440Z,505.00
2023-03-05T15:10:33.386Z,500.00
2023-03-05T15:11:33.316Z,500.00
2023-03-05T15:12:33.251Z,504.00
2023-03-05T15:13:33.198Z,506.00
2023-03-05T15:14:33.128Z,507.00
2023-03-05T15:15:33.086Z,504.00
2023-03-05T15:16:33.111Z,501.00
2023-03-05T15:17:32.935Z,514.00
2023-03-05T15:18:32.866Z,509.00
2023-03-05T15:19:32.804Z,514.00
2023-03-05T15:20:32.854Z,510.00
2023-03-05T15:21:32.671Z,500.00
2023-03-05T15:22:32.596Z,500.00
2023-03-05T15:23:32.534Z,503.00
2023-03-05T15:24:32.473Z,511.00
2023-03-05T15:25:32.400Z,514.00
2023-03-05T15:26:32.344Z,518.00
2023-03-05T15:27:32.285Z,504.00
2023-03-05T15:28:32.234Z,500.00
2023-03-05T15:29:32.272Z,510.00
2023-03-05T15:30:32.103Z,506.00
2023-03-05T15:31:32.084Z,511.00
2023-03-05T15:32:32.009Z,514.00
2023-03-05T15:33:31.899Z,521.00
2023-03-05T15:34:31.832Z,519.00
2023-03-05T15:35:31.832Z,510.00
2023-03-05T15:36:33.529Z,521.00
2023-03-05T15:37:31.657Z,510.00
2023-03-05T15:38:31.609Z,501.00
2023-03-05T15:39:31.579Z,510.00
2023-03-05T15:40:31.476Z,509.00
2023-03-05T15:41:31.405Z,500.00
2023-03-05T15:42:31.346Z,510.00
2023-03-05T15:43:31.287Z,500.00
2023-03-05T15:44:31.220Z,506.00
2023-03-05T15:45:31.156Z,509.00
2023-03-05T15:46:31.242Z,503.00
2023-03-05T15:47:33.386Z,518.00
2023-03-05T15:48:31.053Z,521.00
2023-03-05T15:49:30.971Z,524.00
2023-03-05T15:50:30.918Z,528.00
2023-03-05T15:51:30.858Z,526.00
2023-03-05T15:52:30.793Z,514.00
2023-03-05T15:53:30.760Z,514.00
2023-03-05T15:54:30.682Z,517.00
2023-03-05T15:55:30.611Z,512.00
2023-03-05T15:56:30.562Z,509.00
2023-03-05T15:57:30.501Z,507.00
2023-03-05T15:58:30.422Z,516.00
2023-03-05T15:59:30.351Z,519.00
2023-03-05T16:00:30.306Z,512.00
2023-03-05T16:01:30.304Z,501.00
2023-03-05T16:02:30.178Z,500.00
2023-03-05T16:03:30.157Z,504.00
2023-03-05T16:04:30.063Z,503.00
2023-03-05T16:05:30.062Z,500.00
2023-03-05T16:06:29.964Z,506.00
2023-03-05T16:07:30.909Z,502.00
2023-03-05T16:08:29.868Z,501.00
2023-03-05T16:09:29.784Z,507.00
2023-03-05T16:10:29.728Z,511.00
2023-03-05T16:11:29.668Z,507.00
2023-03-05T16:12:29.616Z,507.00
2023-03-05T16:13:29.565Z,512.00
2023-03-05T16:14:29.495Z,503.00
2023-03-05T16:15:30.406Z,503.00
2023-03-05T16:16:29.515Z,503.00
2023-03-05T16:17:29.336Z,501.00
2023-03-05T16:18:29.290Z,500.00
2023-03-05T16:19:29.233Z,502.00
2023-03-05T16:20:29.174Z,507.00
2023-03-05T16:21:29.144Z,513.00
2023-03-05T16:22:29.076Z,506.00
2023-03-05T16:23:29.018Z,507.00
2023-03-05T16:24:29.043Z,508.00
2023-03-05T16:25:28.898Z,513.00
2023-03-05T16:26:28.850Z,515.00
2023-03-05T16:27:28.781Z,514.00
2023-03-05T16:28:28.726Z,520.00
2023-03-05T16:29:30.708Z,518.00
2023-03-05T16:30:28.613Z,517.00
2023-03-05T16:31:28.588Z,515.00
2023-03-05T16:32:28.646Z,512.00
2023-03-05T16:33:28.466Z,514.00
2023-03-05T16:34:28.370Z,522.00
2023-03-05T16:35:28.403Z,520.00
2023-03-05T16:36:28.265Z,518.00
2023-03-05T16:37:28.251Z,515.00
2023-03-05T16:38:28.198Z,523.00
2023-03-05T16:39:28.090Z,513.00
2023-03-05T16:40:44.213Z,518.00
2023-03-05T16:41:28.991Z,518.00
2023-03-05T16:42:27.921Z,519.00
2023-03-05T16:43:27.855Z,519.00
2023-03-05T16:44:27.809Z,518.00
2023-03-05T16:45:27.747Z,527.00
2023-03-05T16:46:27.803Z,533.00
2023-03-05T16:47:27.618Z,533.00
2023-03-05T16:48:27.567Z,532.00
2023-03-05T16:49:27.517Z,535.00
2023-03-05T16:50:27.492Z,531.00
2023-03-05T16:51:27.415Z,533.00
2023-03-05T16:52:27.346Z,521.00
2023-03-05T16:53:27.309Z,526.00
2023-03-05T16:54:27.223Z,529.00
2023-03-05T16:55:27.183Z,531.00
2023-03-05T16:56:27.109Z,533.00
2023-03-05T16:57:27.089Z,527.00
2023-03-05T16:58:27.005Z,541.00
2023-03-05T16:59:26.984Z,543.00
2023-03-05T17:00:26.925Z,544.00
2023-03-05T17:01:26.827Z,546.00
2023-03-05T17:02:26.772Z,550.00
2023-03-05T17:03:26.711Z,550.00
2023-03-05T17:04:26.693Z,556.00
2023-03-05T17:05:26.590Z,551.00
2023-03-05T17:06:26.534Z,565.00
2023-03-05T17:07:26.566Z,562.00
2023-03-05T17:08:26.403Z,556.00
2023-03-05T17:09:26.354Z,557.00
2023-03-05T17:10:26.317Z,550.00
2023-03-05T17:11:26.244Z,555.00
2023-03-05T17:12:26.171Z,548.00
2023-03-05T17:13:26.098Z,550.00
2023-03-05T17:14:26.046Z,546.00
2023-03-05T17:15:26.009Z,542.00
2023-03-05T17:16:26.051Z,542.00
2023-03-05T17:17:25.911Z,531.00
2023-03-05T17:18:25.823Z,536.00
2023-03-05T17:19:25.773Z,537.00
2023-03-05T17:20:25.732Z,541.00
2023-03-05T17:21:25.671Z,544.00
2023-03-05T17:22:25.631Z,542.00
2023-03-05T17:23:25.563Z,537.00
2023-03-05T17:24:25.511Z,543.00
2023-03-05T17:25:25.488Z,542.00
2023-03-05T17:26:25.411Z,528.00
2023-03-05T17:27:25.411Z,534.00
2023-03-05T17:28:25.323Z,543.00
2023-03-05T17:29:25.274Z,548.00
2023-03-05T17:30:25.222Z,552.00
2023-03-05T17:31:25.226Z,553.00
2023-03-05T17:32:25.196Z,551.00
2023-03-05T17:33:25.182Z,544.00
2023-03-05T17:34:35.662Z,546.00
2023-03-05T17:35:26.065Z,546.00
2023-03-05T17:36:24.947Z,547.00
2023-03-05T17:37:24.916Z,544.00
2023-03-05T17:38:24.846Z,552.00
2023-03-05T17:39:24.800Z,562.00
2023-03-05T17:40:24.739Z,555.00
2023-03-05T17:41:24.693Z,572.00
2023-03-05T17:42:24.672Z,581.00
2023-03-05T17:43:24.582Z,587.00
2023-03-05T17:44:24.547Z,586.00
2023-03-05T17:45:24.560Z,603.00
2023-03-05T17:46:24.427Z,611.00
2023-03-05T17:47:24.384Z,613.00
2023-03-05T17:48:24.313Z,611.00
2023-03-05T17:49:24.311Z,610.00
2023-03-05T17:50:24.245Z,614.00
2023-03-05T17:51:24.176Z,623.00
2023-03-05T17:52:24.116Z,626.00
2023-03-05T17:53:24.052Z,628.00
2023-03-05T17:54:23.999Z,640.00
2023-03-05T17:55:23.949Z,641.00
2023-03-05T17:56:25.727Z,643.00
2023-03-05T17:57:23.856Z,653.00
2023-03-05T17:58:23.804Z,650.00
2023-03-05T17:59:23.747Z,651.00
2023-03-05T18:00:23.686Z,652.00
2023-03-05T18:01:23.695Z,654.00
2023-03-05T18:02:23.578Z,660.00
2023-03-05T18:03:23.542Z,677.00
2023-03-05T18:04:23.512Z,696.00
2023-03-05T18:05:23.424Z,706.00
2023-03-05T18:06:23.385Z,706.00
2023-03-05T18:07:23.313Z,714.00
2023-03-05T18:08:23.256Z,726.00
2023-03-05T18:09:23.190Z,698.00
2023-03-05T18:10:23.204Z,738.00
2023-03-05T18:11:23.168Z,741.00
2023-03-05T18:12:23.055Z,747.00
2023-03-05T18:13:23.099Z,745.00
2023-03-05T18:14:22.944Z,748.00
2023-03-05T18:15:22.890Z,759.00
2023-03-05T18:16:22.861Z,754.00
2023-03-05T18:17:22.799Z,785.00
2023-03-05T18:18:22.729Z,798.00
2023-03-05T18:19:22.696Z,799.00
2023-03-05T18:20:22.626Z,796.00
2023-03-05T18:21:22.590Z,813.00
2023-03-05T18:22:22.533Z,815.00
2023-03-05T18:23:22.491Z,834.00
2023-03-05T18:24:22.428Z,836.00
2023-03-05T18:25:22.374Z,840.00
2023-03-05T18:26:23.026Z,846.00
2023-03-05T18:27:22.298Z,840.00
2023-03-05T18:28:22.229Z,854.00
2023-03-05T18:29:22.163Z,850.00
2023-03-05T18:30:22.134Z,861.00
2023-03-05T18:31:22.061Z,858.00
2023-03-05T18:32:22.150Z,882.00
2023-03-05T18:33:21.992Z,880.00
2023-03-05T18:34:21.924Z,869.00
2023-03-05T18:35:21.904Z,879.00
2023-03-05T18:36:21.834Z,885.00
2023-03-05T18:37:21.765Z,888.00
2023-03-05T18:38:21.729Z,897.00
2023-03-05T18:39:21.664Z,900.00
2023-03-05T18:40:21.629Z,919.00
2023-03-05T18:41:21.564Z,914.00
2023-03-05T18:42:21.511Z,919.00
2023-03-05T18:43:21.464Z,923.00
2023-03-05T18:44:21.449Z,925.00
2023-03-05T18:45:21.378Z,923.00
2023-03-05T18:46:21.412Z,921.00
2023-03-05T18:47:21.295Z,931.00
2023-03-05T18:48:21.234Z,935.00
2023-03-05T18:49:21.202Z,935.00
2023-03-05T18:50:21.142Z,943.00
2023-03-05T18:51:21.093Z,950.00
2023-03-05T18:52:21.037Z,964.00
2023-03-05T18:53:21.002Z,959.00
2023-03-05T18:54:20.973Z,953.00
2023-03-05T18:55:20.902Z,973.00
2023-03-05T18:56:20.838Z,956.00
2023-03-05T18:57:20.814Z,958.00
2023-03-05T18:58:20.744Z,983.00
2023-03-05T18:59:20.710Z,985.00
2023-03-05T19:00:20.646Z,991.00
2023-03-05T19:01:20.638Z,989.00
2023-03-05T19:02:20.545Z,1005.00
2023-03-05T19:03:22.585Z,991.00
2023-03-05T19:04:20.544Z,1030.00
2023-03-05T19:05:20.475Z,1011.00
2023-03-05T19:06:20.419Z,1018.00
2023-03-05T19:07:20.414Z,1022.00
2023-03-05T19:08:20.315Z,1033.00
2023-03-05T19:09:20.280Z,1035.00
2023-03-05T19:10:20.215Z,1042.00
2023-03-05T19:11:20.181Z,1029.00
2023-03-05T19:12:20.110Z,1029.00
2023-03-05T19:13:20.084Z,1047.00
2023-03-05T19:14:20.022Z,1054.00
2023-03-05T19:15:19.979Z,1062.00
2023-03-05T19:16:19.939Z,1070.00
2023-03-05T19:17:19.901Z,1070.00
2023-03-05T19:18:19.860Z,1070.00
2023-03-05T19:19:20.135Z,1070.00
2023-03-05T19:20:19.722Z,1071.00
2023-03-05T19:21:19.685Z,1068.00
2023-03-05T19:22:19.647Z,1071.00
2023-03-05T19:23:19.585Z,1073.00
2023-03-05T19:24:19.534Z,1073.00
2023-03-05T19:25:19.481Z,1071.00
2023-03-05T19:26:19.423Z,1067.00
2023-03-05T19:27:19.390Z,1066.00
2023-03-05T19:28:19.329Z,1069.00
2023-03-05T19:29:19.300Z,1072.00
2023-03-05T19:30:19.234Z,1063.00
2023-03-05T19:31:19.259Z,1053.00
2023-03-05T19:32:19.146Z,1060.00
2023-03-05T19:33:19.094Z,1033.00
2023-03-05T19:34:19.060Z,1033.00
2023-03-05T19:35:19.072Z,1039.00
2023-03-05T19:36:18.950Z,1043.00
2023-03-05T19:37:18.900Z,1036.00
2023-03-05T19:38:18.870Z,1037.00
2023-03-05T19:39:18.816Z,1041.00
2023-03-05T19:40:18.763Z,1044.00
2023-03-05T19:41:18.712Z,1054.00
2023-03-05T19:42:18.675Z,1061.00
2023-03-05T19:43:18.599Z,1083.00
2023-03-05T19:44:18.563Z,1078.00
2023-03-05T19:45:18.502Z,1090.00
2023-03-05T19:46:18.508Z,1086.00
2023-03-05T19:47:18.424Z,1080.00
2023-03-05T19:48:18.350Z,1093.00
2023-03-05T19:49:18.304Z,1088.00
2023-03-05T19:50:18.243Z,1108.00
2023-03-05T19:51:18.191Z,1091.00
2023-03-05T19:52:18.129Z,1101.00
2023-03-05T19:53:18.083Z,1109.00
2023-03-05T19:54:18.036Z,1109.00
2023-03-05T19:55:17.997Z,1115.00
2023-03-05T19:56:17.932Z,1116.00
2023-03-05T19:57:17.892Z,1130.00
2023-03-05T19:58:17.817Z,1130.00
2023-03-05T19:59:17.793Z,1118.00
2023-03-05T20:00:17.705Z,1135.00
2023-03-05T20:01:17.766Z,1118.00
2023-03-05T20:02:18.363Z,1128.00
2023-03-05T20:03:17.560Z,1141.00
2023-03-05T20:04:17.506Z,1141.00
2023-03-05T20:05:17.465Z,1141.00
2023-03-05T20:06:17.417Z,1136.00
2023-03-05T20:07:17.370Z,1142.00
2023-03-05T20:08:17.330Z,1118.00
2023-03-05T20:09:17.285Z,1136.00
2023-03-05T20:10:17.236Z,1126.00
2023-03-05T20:11:17.196Z,1143.00
2023-03-05T20:12:17.151Z,1146.00
2023-03-05T20:13:17.143Z,1137.00
2023-03-05T20:14:17.080Z,1134.00
2023-03-05T20:15:17.027Z,1122.00
2023-03-05T20:16:17.074Z,1116.00
2023-03-05T20:17:16.945Z,1108.00
2023-03-05T20:18:16.881Z,1107.00
2023-03-05T20:19:16.855Z,1117.00
2023-03-05T20:20:16.818Z,1112.00
2023-03-05T20:21:16.774Z,1100.00
2023-03-05T20:22:16.719Z,1107.00
2023-03-05T20:23:16.672Z,1117.00
2023-03-05T20:24:16.623Z,1124.00
2023-03-05T20:25:16.585Z,1092.00
2023-03-05T20:26:16.538Z,1102.00
2023-03-05T20:27:16.486Z,1125.00
2023-03-05T20:28:16.435Z,1104.00
2023-03-05T20:29:18.095Z,1111.00
2023-03-05T20:30:16.342Z,1109.00
2023-03-05T20:31:16.338Z,1090.00
2023-03-05T20:32:16.257Z,1117.00
2023-03-05T20:33:16.180Z,1095.00
2023-03-05T20:34:16.148Z,1112.00
2023-03-05T20:35:16.089Z,1110.00
2023-03-05T20:36:16.060Z,1095.00
2023-03-05T20:37:15.986Z,1081.00
2023-03-05T20:38:15.959Z,1091.00
2023-03-05T20:39:15.900Z,1093.00
2023-03-05T20:40:15.843Z,1100.00
2023-03-05T20:41:15.800Z,1099.00
2023-03-05T20:42:15.762Z,1102.00
2023-03-05T20:43:15.700Z,1098.00
2023-03-05T20:44:15.646Z,1099.00
2023-03-05T20:45:15.598Z,1105.00
2023-03-05T20:46:15.611Z,1088.00
2023-03-05T20:47:15.512Z,1080.00
2023-03-05T20:48:15.476Z,1092.00
2023-03-05T20:49:15.395Z,1083.00
2023-03-05T20:50:15.350Z,1096.00
2023-03-05T20:51:15.317Z,1096.00
2023-03-05T20:52:15.258Z,1096.00
2023-03-05T20:53:15.204Z,1094.00
2023-03-05T20:54:15.203Z,1098.00
2023-03-05T20:55:15.105Z,1081.00
2023-03-05T20:56:15.059Z,1081.00
2023-03-05T20:57:15.030Z,1082.00
2023-03-05T20:58:14.974Z,1098.00
2023-03-05T20:59:14.908Z,1104.00
2023-03-05T21:00:14.841Z,1100.00
2023-03-05T21:01:14.809Z,1113.00
2023-03-05T21:02:14.808Z,1108.00
2023-03-05T21:03:14.691Z,1095.00
2023-03-05T21:04:14.634Z,1106.00
2023-03-05T21:05:14.630Z,1114.00
2023-03-05T21:06:14.542Z,1105.00
2023-03-05T21:07:14.515Z,1129.00
2023-03-05T21:08:14.444Z,1114.00
2023-03-05T21:09:14.395Z,1125.00
2023-03-05T21:10:14.374Z,1126.00
2023-03-05T21:11:14.311Z,1110.00
2023-03-05T21:12:14.266Z,1123.00
2023-03-05T21:13:14.212Z,1116.00
2023-03-05T21:14:14.171Z,1125.00
2023-03-05T21:15:14.132Z,1117.00
2023-03-05T21:16:14.100Z,1110.00
2023-03-05T21:17:14.017Z,1104.00
2023-03-05T21:18:14.028Z,1125.00
2023-03-05T21:19:13.920Z,1112.00
2023-03-05T21:20:13.879Z,1104.00
2023-03-05T21:21:13.829Z,1099.00
2023-03-05T21:22:13.817Z,1099.00
2023-03-05T21:23:13.731Z,1105.00
2023-03-05T21:24:13.690Z,1103.00
2023-03-05T21:25:13.649Z,1099.00
2023-03-05T21:26:13.815Z,1096.00
2023-03-05T21:27:13.535Z,1097.00
2023-03-05T21:28:13.486Z,1104.00
2023-03-05T21:29:13.435Z,1085.00